createdAt,value
2023-02-11T00:00:23.997Z,6.40
2023-02-11T00:02:50.900Z,6.40
2023-02-11T00:05:17.535Z,6.50
2023-02-11T00:07:44.201Z,6.40
2023-02-11T00:10:10.894Z,6.50
2023-02-11T00:12:38.326Z,6.40
2023-02-11T00:15:07.446Z,6.50
2023-02-11T00:17:34.111Z,6.50
2023-02-11T00:20:00.782Z,6.60
2023-02-11T00:22:27.585Z,6.50
2023-02-11T00:24:54.205Z,6.60
2023-02-11T00:27:20.851Z,6.50
2023-02-11T00:29:47.560Z,6.50
2023-02-11T00:32:14.178Z,6.50
2023-02-11T00:34:40.875Z,6.50
2023-02-11T00:37:07.476Z,6.50
2023-02-11T00:39:34.079Z,6.50
2023-02-11T00:42:00.841Z,6.50
2023-02-11T00:44:27.484Z,6.50
2023-02-11T00:46:54.143Z,6.50
2023-02-11T00:49:20.859Z,6.50
2023-02-11T00:51:47.682Z,6.60
2023-02-11T00:54:14.294Z,6.50
2023-02-11T00:56:41.059Z,6.60
2023-02-11T00:59:07.685Z,6.50
2023-02-11T01:01:34.755Z,6.60
2023-02-11T01:04:01.472Z,6.50
2023-02-11T01:06:28.119Z,6.60
2023-02-11T01:08:54.773Z,6.50
2023-02-11T01:11:21.958Z,6.50
2023-02-11T01:13:49.688Z,6.50
2023-02-11T01:16:18.546Z,6.60
2023-02-11T01:18:45.418Z,6.50
2023-02-11T01:21:13.075Z,6.50
2023-02-11T01:23:39.770Z,6.50
2023-02-11T01:26:06.681Z,6.50
2023-02-11T01:28:33.742Z,6.60
2023-02-11T01:31:02.184Z,6.50
2023-02-11T01:33:29.464Z,6.50
2023-02-11T01:35:59.673Z,6.50
2023-02-11T01:38:26.564Z,6.60
2023-02-11T01:40:55.122Z,6.60
2023-02-11T01:43:22.971Z,6.60
2023-02-11T01:45:58.014Z,6.60
2023-02-11T01:48:32.489Z,6.60
2023-02-11T01:51:07.633Z,6.60
2023-02-11T01:53:55.189Z,6.60
2023-02-11T01:56:42.699Z,6.60
2023-02-11T01:59:18.456Z,6.60
2023-02-11T02:01:51.885Z,6.60
2023-02-11T02:04:19.876Z,6.60
2023-02-11T02:06:53.452Z,6.50
2023-02-11T02:09:24.632Z,6.60
2023-02-11T02:11:51.928Z,6.60
2023-02-11T02:14:18.861Z,6.50
2023-02-11T02:16:46.422Z,6.50
2023-02-11T02:19:31.968Z,6.50
2023-02-11T02:22:32.398Z,6.50
2023-02-11T02:25:17.715Z,6.50
2023-02-11T02:28:03.354Z,6.50
2023-02-11T02:30:29.968Z,6.40
2023-02-11T02:33:21.844Z,6.40
2023-02-11T02:36:13.968Z,6.50
2023-02-11T02:38:58.979Z,6.50
2023-02-11T02:41:30.434Z,6.50
2023-02-11T02:43:57.221Z,6.60
2023-02-11T02:46:27.200Z,6.60
2023-02-11T02:48:55.271Z,6.50
2023-02-11T02:51:49.509Z,6.60
2023-02-11T02:54:35.800Z,6.60
2023-02-11T02:57:11.590Z,6.60
2023-02-11T03:00:06.639Z,6.70
2023-02-11T03:03:03.996Z,6.60
2023-02-11T03:05:59.683Z,6.70
2023-02-11T03:08:43.529Z,6.70
2023-02-11T03:11:12.174Z,6.70
2023-02-11T03:13:40.568Z,6.60
2023-02-11T03:16:14.848Z,6.70
2023-02-11T03:18:46.206Z,6.70
2023-02-11T03:21:14.850Z,6.70
2023-02-11T03:23:46.917Z,6.70
2023-02-11T03:26:19.164Z,6.60
2023-02-11T03:29:00.644Z,6.60
2023-02-11T03:31:49.492Z,6.70
2023-02-11T03:34:38.128Z,6.70
2023-02-11T03:37:19.897Z,6.60
2023-02-11T03:40:00.137Z,6.70
2023-02-11T03:42:31.982Z,6.70
2023-02-11T03:45:07.893Z,6.70
2023-02-11T03:47:37.123Z,6.70
2023-02-11T03:50:07.695Z,6.70
2023-02-11T03:52:37.717Z,6.70
2023-02-11T03:55:17.061Z,6.70
2023-02-11T03:57:44.181Z,6.70
2023-02-11T04:00:11.955Z,6.70
2023-02-11T04:02:39.351Z,6.60
2023-02-11T04:05:08.448Z,6.70
2023-02-11T04:07:35.185Z,6.70
2023-02-11T04:10:02.012Z,6.70
2023-02-11T04:12:28.633Z,6.70
2023-02-11T04:14:55.280Z,6.70
2023-02-11T04:17:21.872Z,6.70
2023-02-11T04:19:48.541Z,6.60
2023-02-11T04:22:15.232Z,6.60
2023-02-11T04:24:43.912Z,6.60
2023-02-11T04:27:10.587Z,6.60
2023-02-11T04:29:37.380Z,6.60
2023-02-11T04:32:04.196Z,6.60
2023-02-11T04:34:31.153Z,6.60
2023-02-11T04:36:57.820Z,6.60
2023-02-11T04:39:24.461Z,6.60
2023-02-11T04:41:51.251Z,6.60
2023-02-11T04:44:17.880Z,6.60
2023-02-11T04:46:45.258Z,6.70
2023-02-11T04:49:16.258Z,6.70
2023-02-11T04:51:46.444Z,6.70
2023-02-11T04:54:14.267Z,6.70
2023-02-11T04:56:40.976Z,6.70
2023-02-11T04:59:07.739Z,6.80
2023-02-11T05:01:34.615Z,6.70
2023-02-11T05:04:01.482Z,6.70
2023-02-11T05:06:28.352Z,6.70
2023-02-11T05:08:55.002Z,6.80
2023-02-11T05:11:24.537Z,6.70
2023-02-11T05:13:51.958Z,6.70
2023-02-11T05:16:19.125Z,6.70
2023-02-11T05:18:46.245Z,6.70
2023-02-11T05:21:15.975Z,6.70
2023-02-11T05:23:43.546Z,6.80
2023-02-11T05:26:11.343Z,6.80
2023-02-11T05:28:39.301Z,6.80
2023-02-11T05:31:06.590Z,6.70
2023-02-11T05:33:33.580Z,6.80
2023-02-11T05:36:01.936Z,6.80
2023-02-11T05:38:28.570Z,6.80
2023-02-11T05:40:55.475Z,6.80
2023-02-11T05:43:22.449Z,6.90
2023-02-11T05:45:49.649Z,6.90
2023-02-11T05:48:17.729Z,6.90
2023-02-11T05:50:45.335Z,6.90
2023-02-11T05:53:12.311Z,6.90
2023-02-11T05:55:39.196Z,6.90
2023-02-11T05:58:06.807Z,6.90
2023-02-11T06:00:34.017Z,6.90
2023-02-11T06:03:00.964Z,7.00
2023-02-11T06:05:27.852Z,6.90
2023-02-11T06:07:54.547Z,7.00
2023-02-11T06:10:21.287Z,7.00
2023-02-11T06:12:48.244Z,6.90
2023-02-11T06:15:14.927Z,6.90
2023-02-11T06:17:41.603Z,6.90
2023-02-11T06:20:10.435Z,7.00
2023-02-11T06:22:37.171Z,7.10
2023-02-11T06:25:04.129Z,6.90
2023-02-11T06:27:31.245Z,6.90
2023-02-11T06:29:57.957Z,6.90
2023-02-11T06:32:42.626Z,6.90
2023-02-11T06:35:12.105Z,6.90
2023-02-11T06:37:39.384Z,7.00
2023-02-11T06:40:06.583Z,6.90
2023-02-11T06:42:34.515Z,6.90
2023-02-11T06:45:01.284Z,6.90
2023-02-11T06:47:27.999Z,6.90
2023-02-11T06:49:54.624Z,7.00
2023-02-11T06:52:21.278Z,6.90
2023-02-11T06:54:47.912Z,6.90
2023-02-11T06:57:14.562Z,6.90
2023-02-11T06:59:41.678Z,6.90
2023-02-11T07:02:10.377Z,6.90
2023-02-11T07:04:37.112Z,6.90
2023-02-11T07:07:03.757Z,6.90
2023-02-11T07:09:30.441Z,6.90
2023-02-11T07:11:57.184Z,6.90
2023-02-11T07:14:23.955Z,6.90
2023-02-11T07:16:50.706Z,6.90
2023-02-11T07:19:17.661Z,6.90
2023-02-11T07:21:44.322Z,6.80
2023-02-11T07:24:11.489Z,6.90
2023-02-11T07:26:38.746Z,6.90
2023-02-11T07:29:05.468Z,6.90
2023-02-11T07:31:32.613Z,6.90
2023-02-11T07:34:01.044Z,6.90
2023-02-11T07:36:29.834Z,7.00
2023-02-11T07:38:56.546Z,7.00
2023-02-11T07:41:24.320Z,7.00
2023-02-11T07:43:51.550Z,7.00
2023-02-11T07:46:24.055Z,7.10
2023-02-11T07:48:51.075Z,7.10
2023-02-11T07:51:19.129Z,7.10
2023-02-11T07:53:46.406Z,7.10
2023-02-11T07:56:14.925Z,7.20
2023-02-11T07:58:43.078Z,7.20
2023-02-11T08:01:12.739Z,7.20
2023-02-11T08:03:41.883Z,7.20
2023-02-11T08:06:14.293Z,7.20
2023-02-11T08:08:41.078Z,7.20
2023-02-11T08:11:12.616Z,7.30
2023-02-11T08:13:39.580Z,7.30
2023-02-11T08:16:07.002Z,7.20
2023-02-11T08:18:34.585Z,7.30
2023-02-11T08:21:06.581Z,7.30
2023-02-11T08:23:33.403Z,7.30
2023-02-11T08:26:04.503Z,7.30
2023-02-11T08:28:34.350Z,7.30
2023-02-11T08:31:09.130Z,7.30
2023-02-11T08:33:35.936Z,7.40
2023-02-11T08:36:08.033Z,7.40
2023-02-11T08:38:34.688Z,7.40
2023-02-11T08:41:01.561Z,7.50
2023-02-11T08:43:28.235Z,7.60
2023-02-11T08:45:54.902Z,7.60
2023-02-11T08:48:21.638Z,7.60
2023-02-11T08:50:48.323Z,7.70
2023-02-11T08:53:15.065Z,7.70
2023-02-11T08:55:52.204Z,7.70
2023-02-11T08:58:20.027Z,7.70
2023-02-11T09:00:47.517Z,7.80
2023-02-11T09:03:15.517Z,7.80
2023-02-11T09:05:47.462Z,7.80
2023-02-11T09:08:14.787Z,7.70
2023-02-11T09:10:41.492Z,7.80
2023-02-11T09:13:08.659Z,7.90
2023-02-11T09:15:35.566Z,7.90
2023-02-11T09:18:02.276Z,7.90
2023-02-11T09:20:29.071Z,7.90
2023-02-11T09:22:58.594Z,7.90
2023-02-11T09:25:25.693Z,7.90
2023-02-11T09:27:53.741Z,7.90
2023-02-11T09:30:20.651Z,7.90
2023-02-11T09:32:47.261Z,8.40
2023-02-11T09:35:14.015Z,8.00
2023-02-11T09:37:40.772Z,8.00
2023-02-11T09:40:07.867Z,8.00
2023-02-11T09:42:43.035Z,8.00
2023-02-11T09:45:19.369Z,8.10
2023-02-11T09:47:50.771Z,8.10
2023-02-11T09:50:36.149Z,8.20
2023-02-11T09:53:34.444Z,8.20
2023-02-11T09:56:05.207Z,8.30
2023-02-11T09:58:36.914Z,8.30
2023-02-11T10:01:37.736Z,8.30
2023-02-11T10:04:24.756Z,8.40
2023-02-11T10:07:00.348Z,8.50
2023-02-11T10:09:50.664Z,8.50
2023-02-11T10:12:41.653Z,8.50
2023-02-11T10:15:32.954Z,8.60
2023-02-11T10:18:27.691Z,8.60
2023-02-11T10:21:06.438Z,8.60
2023-02-11T10:23:39.984Z,8.60
2023-02-11T10:26:16.572Z,8.70
2023-02-11T10:28:47.269Z,8.80
2023-02-11T10:31:28.311Z,8.70
2023-02-11T10:34:07.487Z,8.80
2023-02-11T10:36:42.592Z,8.80
2023-02-11T10:39:19.289Z,8.80
2023-02-11T10:41:51.026Z,8.90
2023-02-11T10:44:23.127Z,8.90
2023-02-11T10:46:50.894Z,9.00
2023-02-11T10:49:42.163Z,8.90
2023-02-11T10:52:22.391Z,9.00
2023-02-11T10:55:05.829Z,9.00
2023-02-11T10:57:46.397Z,9.00
2023-02-11T11:00:36.883Z,9.10
2023-02-11T11:03:25.388Z,9.20
2023-02-11T11:05:58.206Z,9.20
2023-02-11T11:08:38.186Z,9.20
2023-02-11T11:11:10.470Z,9.30
2023-02-11T11:13:53.673Z,9.30
2023-02-11T11:16:32.364Z,9.30
2023-02-11T11:19:07.990Z,9.30
2023-02-11T11:21:37.684Z,9.30
2023-02-11T11:24:04.723Z,9.30
2023-02-11T11:26:43.501Z,9.30
2023-02-11T11:29:16.390Z,9.30
2023-02-11T11:31:52.653Z,9.40
2023-02-11T11:34:29.799Z,9.30
2023-02-11T11:36:58.303Z,9.30
2023-02-11T11:39:31.638Z,9.30
2023-02-11T11:42:00.640Z,9.40
2023-02-11T11:44:36.806Z,9.30
2023-02-11T11:47:12.272Z,9.20
2023-02-11T11:50:09.508Z,9.20
2023-02-11T11:52:48.306Z,9.20
2023-02-11T11:55:21.689Z,9.20
2023-02-11T11:57:49.060Z,9.20
2023-02-11T12:00:43.982Z,9.20
2023-02-11T12:03:37.648Z,9.10
2023-02-11T12:06:11.602Z,9.20
2023-02-11T12:08:52.297Z,9.10
2023-02-11T12:11:28.423Z,9.10
2023-02-11T12:14:34.965Z,9.10
2023-02-11T12:17:35.088Z,9.10
2023-02-11T12:20:31.575Z,9.10
2023-02-11T12:23:00.890Z,9.20
2023-02-11T12:25:47.871Z,9.20
2023-02-11T12:28:32.272Z,9.30
2023-02-11T12:31:27.563Z,9.30
2023-02-11T12:34:00.100Z,9.40
2023-02-11T12:36:47.727Z,9.40
2023-02-11T12:39:37.156Z,9.50
2023-02-11T12:42:51.129Z,9.50
2023-02-11T12:45:22.345Z,9.60
2023-02-11T12:48:03.942Z,9.60
2023-02-11T12:50:42.028Z,9.70
2023-02-11T12:53:28.214Z,9.70
2023-02-11T12:56:05.488Z,9.60
2023-02-11T12:58:44.910Z,9.60
2023-02-11T13:01:29.177Z,9.70
2023-02-11T13:03:59.968Z,9.70
2023-02-11T13:06:38.684Z,10.00
2023-02-11T13:09:12.998Z,9.70
2023-02-11T13:11:51.898Z,9.70
2023-02-11T13:14:27.332Z,9.80
2023-02-11T13:16:55.198Z,9.90
2023-02-11T13:19:30.159Z,9.80
2023-02-11T13:22:11.113Z,9.80
2023-02-11T13:24:40.618Z,9.80
2023-02-11T13:27:40.360Z,9.70
2023-02-11T13:30:19.620Z,9.80
2023-02-11T13:32:58.258Z,9.80
2023-02-11T13:35:33.806Z,9.70
2023-02-11T13:38:03.159Z,9.80
2023-02-11T13:40:38.432Z,9.80
2023-02-11T13:43:07.446Z,9.90
2023-02-11T13:45:47.262Z,9.80
2023-02-11T13:48:22.006Z,9.80
2023-02-11T13:50:51.921Z,9.90
2023-02-11T13:53:19.980Z,9.90
2023-02-11T13:55:51.118Z,10.00
2023-02-11T13:58:36.337Z,10.00
2023-02-11T14:01:03.520Z,10.00
2023-02-11T14:03:51.833Z,10.10
2023-02-11T14:06:43.320Z,10.20
2023-02-11T14:09:10.077Z,10.20
2023-02-11T14:11:45.368Z,10.20
2023-02-11T14:14:27.183Z,10.20
2023-02-11T14:17:02.953Z,10.20
2023-02-11T14:19:40.012Z,10.20
2023-02-11T14:22:09.625Z,10.30
2023-02-11T14:24:36.199Z,10.30
2023-02-11T14:27:21.382Z,10.20
2023-02-11T14:29:54.313Z,10.30
2023-02-11T14:32:48.156Z,10.30
2023-02-11T14:35:37.859Z,10.30
2023-02-11T14:38:28.767Z,10.30
2023-02-11T14:41:06.611Z,10.20
2023-02-11T14:43:40.794Z,10.20
2023-02-11T14:46:08.592Z,10.20
2023-02-11T14:48:37.893Z,10.20
2023-02-11T14:51:16.101Z,10.30
2023-02-11T14:53:49.937Z,10.20
2023-02-11T14:56:26.251Z,10.20
2023-02-11T14:58:54.429Z,10.20
2023-02-11T15:01:33.917Z,10.20
2023-02-11T15:04:05.472Z,10.20
2023-02-11T15:06:40.580Z,10.20
2023-02-11T15:09:21.041Z,10.30
2023-02-11T15:11:50.472Z,10.30
2023-02-11T15:14:31.174Z,10.30
2023-02-11T15:17:02.317Z,10.30
2023-02-11T15:19:34.536Z,10.30
2023-02-11T15:22:07.017Z,10.30
2023-02-11T15:24:35.535Z,10.30
2023-02-11T15:27:16.030Z,10.30
2023-02-11T15:29:49.384Z,10.30
2023-02-11T15:32:22.853Z,10.20
2023-02-11T15:34:51.728Z,10.10
2023-02-11T15:37:24.384Z,10.10
2023-02-11T15:39:51.920Z,10.10
2023-02-11T15:42:40.756Z,10.00
2023-02-11T15:45:13.680Z,10.00
2023-02-11T15:47:48.204Z,10.00
2023-02-11T15:50:27.575Z,9.90
2023-02-11T15:52:56.885Z,9.90
2023-02-11T15:55:24.939Z,9.80
2023-02-11T15:57:56.169Z,9.80
2023-02-11T16:00:30.112Z,9.80
2023-02-11T16:02:56.864Z,9.70
2023-02-11T16:05:35.420Z,9.70
2023-02-11T16:08:26.958Z,9.70
2023-02-11T16:10:58.492Z,9.70
2023-02-11T16:13:28.116Z,9.60
2023-02-11T16:16:02.409Z,9.60
2023-02-11T16:18:38.998Z,9.60
2023-02-11T16:21:15.799Z,9.60
2023-02-11T16:23:48.646Z,9.50
2023-02-11T16:26:27.863Z,9.50
2023-02-11T16:29:12.872Z,9.50
2023-02-11T16:31:42.872Z,9.40
2023-02-11T16:34:22.945Z,9.40
2023-02-11T16:36:50.717Z,9.40
2023-02-11T16:39:22.985Z,9.40
2023-02-11T16:41:51.673Z,9.30
2023-02-11T16:44:18.541Z,9.30
2023-02-11T16:46:46.083Z,9.30
2023-02-11T16:49:21.721Z,9.30
2023-02-11T16:51:49.652Z,9.30
2023-02-11T16:54:17.467Z,9.20
2023-02-11T16:56:46.132Z,9.20
2023-02-11T16:59:12.743Z,9.20
2023-02-11T17:01:41.664Z,9.20
2023-02-11T17:04:25.614Z,9.20
2023-02-11T17:06:52.415Z,9.20
2023-02-11T17:09:21.447Z,9.20
2023-02-11T17:11:48.888Z,9.10
2023-02-11T17:14:16.159Z,9.10
2023-02-11T17:16:43.867Z,9.10
2023-02-11T17:19:13.853Z,9.10
2023-02-11T17:21:44.314Z,9.10
2023-02-11T17:24:11.920Z,9.10
2023-02-11T17:26:39.212Z,9.00
2023-02-11T17:29:07.083Z,9.00
2023-02-11T17:31:34.201Z,9.00
2023-02-11T17:34:01.336Z,9.00
2023-02-11T17:36:28.180Z,8.90
2023-02-11T17:38:55.028Z,9.00
2023-02-11T17:41:21.665Z,9.00
2023-02-11T17:43:48.346Z,9.00
2023-02-11T17:46:15.171Z,8.90
2023-02-11T17:48:41.856Z,8.90
2023-02-11T17:51:28.937Z,8.90
2023-02-11T17:53:58.134Z,8.90
2023-02-11T17:56:24.892Z,8.90
2023-02-11T17:58:52.942Z,8.80
2023-02-11T18:01:20.031Z,8.90
2023-02-11T18:03:46.835Z,8.90
2023-02-11T18:06:13.538Z,8.90
2023-02-11T18:08:41.786Z,8.80
2023-02-11T18:11:13.418Z,8.70
2023-02-11T18:13:40.072Z,8.70
2023-02-11T18:16:15.492Z,8.70
2023-02-11T18:18:43.259Z,8.70
2023-02-11T18:21:17.895Z,8.60
2023-02-11T18:23:45.244Z,8.70
2023-02-11T18:26:13.613Z,8.70
2023-02-11T18:28:43.233Z,8.60
2023-02-11T18:31:11.994Z,8.60
2023-02-11T18:33:39.770Z,8.60
2023-02-11T18:36:08.294Z,8.50
2023-02-11T18:38:35.271Z,8.50
2023-02-11T18:41:02.293Z,8.50
2023-02-11T18:43:33.523Z,8.50
2023-02-11T18:46:01.956Z,8.40
2023-02-11T18:48:29.330Z,8.50
2023-02-11T18:50:56.463Z,8.40
2023-02-11T18:53:24.702Z,8.40
2023-02-11T18:55:52.848Z,8.50
2023-02-11T18:58:21.236Z,8.50
2023-02-11T19:00:49.539Z,8.50
2023-02-11T19:03:17.033Z,8.50
2023-02-11T19:05:49.080Z,8.40
2023-02-11T19:08:17.146Z,8.40
2023-02-11T19:10:46.026Z,8.40
2023-02-11T19:13:13.755Z,8.40
2023-02-11T19:15:47.367Z,8.40
2023-02-11T19:18:15.126Z,8.40
2023-02-11T19:20:43.369Z,8.40
2023-02-11T19:23:10.832Z,8.40
2023-02-11T19:25:44.301Z,8.40
2023-02-11T19:28:10.992Z,8.30
2023-02-11T19:30:37.746Z,8.30
2023-02-11T19:33:04.515Z,8.30
2023-02-11T19:35:35.239Z,8.30
2023-02-11T19:38:03.816Z,8.30
2023-02-11T19:40:31.373Z,8.30
2023-02-11T19:42:58.212Z,8.20
2023-02-11T19:45:26.370Z,8.20
2023-02-11T19:47:56.987Z,8.20
2023-02-11T19:50:24.247Z,8.10
2023-02-11T19:52:51.023Z,8.10
2023-02-11T19:55:17.840Z,8.10
2023-02-11T19:57:44.525Z,8.10
2023-02-11T20:00:11.791Z,8.00
2023-02-11T20:02:39.483Z,8.00
2023-02-11T20:05:07.171Z,8.00
2023-02-11T20:07:33.873Z,7.90
2023-02-11T20:10:00.589Z,7.70
2023-02-11T20:12:27.290Z,7.70
2023-02-11T20:14:53.934Z,7.70
2023-02-11T20:17:20.614Z,7.60
2023-02-11T20:19:47.376Z,7.60
2023-02-11T20:22:14.031Z,7.60
2023-02-11T20:24:40.688Z,7.60
2023-02-11T20:27:08.389Z,7.60
2023-02-11T20:29:35.107Z,7.50
2023-02-11T20:32:02.970Z,7.40
2023-02-11T20:34:29.747Z,7.40
2023-02-11T20:36:56.635Z,7.40
2023-02-11T20:39:24.381Z,7.40
2023-02-11T20:41:51.739Z,7.30
2023-02-11T20:44:18.740Z,7.30
2023-02-11T20:46:48.636Z,7.30
2023-02-11T20:49:18.898Z,7.30
2023-02-11T20:51:45.814Z,7.30
2023-02-11T20:54:14.566Z,7.30
2023-02-11T20:56:41.757Z,7.50
2023-02-11T20:59:08.485Z,7.30
2023-02-11T21:01:41.002Z,7.30
2023-02-11T21:04:12.062Z,7.30
2023-02-11T21:06:42.323Z,7.30
2023-02-11T21:09:13.068Z,7.30
2023-02-11T21:11:40.000Z,7.30
2023-02-11T21:14:07.176Z,7.30
2023-02-11T21:16:37.116Z,7.30
2023-02-11T21:19:04.308Z,7.30
2023-02-11T21:21:31.134Z,7.30
2023-02-11T21:23:58.599Z,7.20
2023-02-11T21:26:25.746Z,7.30
2023-02-11T21:28:55.486Z,7.20
2023-02-11T21:31:25.010Z,7.20
2023-02-11T21:33:54.422Z,7.10
2023-02-11T21:36:22.233Z,7.10
2023-02-11T21:38:49.923Z,7.10
2023-02-11T21:41:17.515Z,7.00
2023-02-11T21:43:44.221Z,7.00
2023-02-11T21:46:13.981Z,7.00
2023-02-11T21:48:40.682Z,7.00
2023-02-11T21:51:10.973Z,7.00
2023-02-11T21:53:38.391Z,7.10
2023-02-11T21:56:08.238Z,7.10
2023-02-11T21:58:35.665Z,7.10
2023-02-11T22:01:09.504Z,7.10
2023-02-11T22:03:36.237Z,7.10
2023-02-11T22:06:09.505Z,7.10
2023-02-11T22:08:36.600Z,7.10
2023-02-11T22:11:08.775Z,7.10
2023-02-11T22:13:36.343Z,7.10
2023-02-11T22:16:06.681Z,7.20
2023-02-11T22:18:33.670Z,7.10
2023-02-11T22:21:04.854Z,7.20
2023-02-11T22:23:31.915Z,7.20
2023-02-11T22:26:02.517Z,7.20
2023-02-11T22:28:30.088Z,7.20
2023-02-11T22:30:57.657Z,7.20
2023-02-11T22:33:25.437Z,7.30
2023-02-11T22:36:04.860Z,7.30
2023-02-11T22:38:32.801Z,7.30
2023-02-11T22:41:04.773Z,7.30
2023-02-11T22:43:31.479Z,7.30
2023-02-11T22:46:02.177Z,7.40
2023-02-11T22:48:29.132Z,7.30
2023-02-11T22:50:55.892Z,7.40
2023-02-11T22:53:25.421Z,7.30
2023-02-11T22:55:52.559Z,7.30
2023-02-11T22:58:19.394Z,7.40
2023-02-11T23:00:46.075Z,7.40
2023-02-11T23:03:13.409Z,7.40
2023-02-11T23:05:41.363Z,7.40
2023-02-11T23:08:10.119Z,7.40
2023-02-11T23:10:38.498Z,7.40
2023-02-11T23:13:06.805Z,7.40
2023-02-11T23:15:34.219Z,7.40
2023-02-11T23:18:00.869Z,7.40
2023-02-11T23:20:27.592Z,7.40
2023-02-11T23:22:54.293Z,7.40
2023-02-11T23:25:21.045Z,7.40
2023-02-11T23:27:47.877Z,7.30
2023-02-11T23:30:14.871Z,7.30
2023-02-11T23:32:41.495Z,7.30
2023-02-11T23:35:08.351Z,7.30
2023-02-11T23:37:35.047Z,7.30
2023-02-11T23:40:01.770Z,7.30
2023-02-11T23:42:29.112Z,7.30
2023-02-11T23:44:55.816Z,7.30
2023-02-11T23:47:22.544Z,7.30
2023-02-11T23:49:49.403Z,7.30
2023-02-11T23:52:16.144Z,7.30
2023-02-11T23:54:43.334Z,7.30
2023-02-11T23:57:09.947Z,7.20
2023-02-11T23:59:36.614Z,7.20
